sensor_id;sensor_type;location;lat;lon;timestamp;P1;durP1;ratioP1;P2;durP2;ratioP2
30301;SDS011;17111;52.130;5.028;2023-09-18T00:00:19;30.38;;;20.83;;
30301;SDS011;17111;52.130;5.028;2023-09-18T00:02:47;27.48;;;20.00;;
30301;SDS011;17111;52.130;5.028;2023-09-18T00:05:14;24.88;;;18.90;;
30301;SDS011;17111;52.130;5.028;2023-09-18T00:07:42;28.30;;;19.63;;
30301;SDS011;17111;52.130;5.028;2023-09-18T00:10:10;28.35;;;20.73;;
30301;SDS011;17111;52.130;5.028;2023-09-18T00:12:37;25.80;;;19.23;;
30301;SDS011;17111;52.130;5.028;2023-09-18T00:15:05;28.85;;;19.95;;
30301;SDS011;17111;52.130;5.028;2023-09-18T00:17:35;27.75;;;20.08;;
30301;SDS011;17111;52.130;5.028;2023-09-18T00:20:02;26.10;;;18.45;;
30301;SDS011;17111;52.130;5.028;2023-09-18T00:22:33;25.90;;;19.27;;
30301;SDS011;17111;52.130;5.028;2023-09-18T00:24:59;27.83;;;19.58;;
30301;SDS011;17111;52.130;5.028;2023-09-18T00:27:27;25.73;;;18.70;;
30301;SDS011;17111;52.130;5.028;2023-09-18T00:29:55;26.50;;;18.17;;
30301;SDS011;17111;52.130;5.028;2023-09-18T00:32:21;27.13;;;19.63;;
30301;SDS011;17111;52.130;5.028;2023-09-18T00:34:48;27.17;;;18.98;;
30301;SDS011;17111;52.130;5.028;2023-09-18T00:37:15;27.73;;;17.75;;
30301;SDS011;17111;52.130;5.028;2023-09-18T00:39:43;24.95;;;17.95;;
30301;SDS011;17111;52.130;5.028;2023-09-18T00:42:10;23.88;;;17.95;;
30301;SDS011;17111;52.130;5.028;2023-09-18T00:44:40;26.98;;;18.75;;
30301;SDS011;17111;52.130;5.028;2023-09-18T00:47:07;24.75;;;18.05;;
30301;SDS011;17111;52.130;5.028;2023-09-18T00:49:35;26.95;;;19.38;;
30301;SDS011;17111;52.130;5.028;2023-09-18T00:52:04;24.15;;;16.98;;
30301;SDS011;17111;52.130;5.028;2023-09-18T00:54:33;24.02;;;17.60;;
30301;SDS011;17111;52.130;5.028;2023-09-18T00:57:01;25.23;;;17.98;;
30301;SDS011;17111;52.130;5.028;2023-09-18T00:59:28;24.92;;;17.92;;
30301;SDS011;17111;52.130;5.028;2023-09-18T01:01:55;24.23;;;16.67;;
30301;SDS011;17111;52.130;5.028;2023-09-18T01:04:22;24.48;;;17.38;;
30301;SDS011;17111;52.130;5.028;2023-09-18T01:06:52;23.95;;;16.88;;
30301;SDS011;17111;52.130;5.028;2023-09-18T01:09:20;22.17;;;16.08;;
30301;SDS011;17111;52.130;5.028;2023-09-18T01:14:31;22.17;;;16.00;;
30301;SDS011;17111;52.130;5.028;2023-09-18T01:17:03;22.83;;;16.45;;
30301;SDS011;17111;52.130;5.028;2023-09-18T01:22:03;22.77;;;16.90;;
30301;SDS011;17111;52.130;5.028;2023-09-18T01:24:34;21.35;;;16.20;;
30301;SDS011;17111;52.130;5.028;2023-09-18T01:27:03;20.95;;;16.10;;
30301;SDS011;17111;52.130;5.028;2023-09-18T01:29:33;22.33;;;15.55;;
30301;SDS011;17111;52.130;5.028;2023-09-18T01:31:59;22.65;;;16.55;;
30301;SDS011;17111;52.130;5.028;2023-09-18T01:34:34;22.98;;;16.90;;
30301;SDS011;17111;52.130;5.028;2023-09-18T01:37:15;22.08;;;15.70;;
30301;SDS011;17111;52.130;5.028;2023-09-18T01:39:44;21.75;;;15.70;;
30301;SDS011;17111;52.130;5.028;2023-09-18T01:42:12;21.30;;;15.40;;
30301;SDS011;17111;52.130;5.028;2023-09-18T01:44:39;21.58;;;15.55;;
30301;SDS011;17111;52.130;5.028;2023-09-18T01:47:06;21.02;;;15.32;;
30301;SDS011;17111;52.130;5.028;2023-09-18T01:49:35;20.35;;;15.02;;
30301;SDS011;17111;52.130;5.028;2023-09-18T01:52:03;20.73;;;15.35;;
30301;SDS011;17111;52.130;5.028;2023-09-18T01:54:31;21.15;;;15.30;;
30301;SDS011;17111;52.130;5.028;2023-09-18T01:56:58;21.65;;;15.95;;
30301;SDS011;17111;52.130;5.028;2023-09-18T01:59:25;20.48;;;15.27;;
30301;SDS011;17111;52.130;5.028;2023-09-18T02:01:53;20.13;;;14.68;;
30301;SDS011;17111;52.130;5.028;2023-09-18T02:04:22;18.88;;;13.88;;
30301;SDS011;17111;52.130;5.028;2023-09-18T02:07:09;19.92;;;14.90;;
30301;SDS011;17111;52.130;5.028;2023-09-18T02:09:36;20.00;;;14.48;;
30301;SDS011;17111;52.130;5.028;2023-09-18T02:12:02;18.50;;;14.63;;
30301;SDS011;17111;52.130;5.028;2023-09-18T02:14:30;19.88;;;13.88;;
30301;SDS011;17111;52.130;5.028;2023-09-18T02:16:57;20.15;;;14.02;;
30301;SDS011;17111;52.130;5.028;2023-09-18T02:19:24;20.85;;;13.88;;
30301;SDS011;17111;52.130;5.028;2023-09-18T02:21:52;18.20;;;13.57;;
30301;SDS011;17111;52.130;5.028;2023-09-18T02:24:22;19.08;;;13.88;;
30301;SDS011;17111;52.130;5.028;2023-09-18T02:26:49;18.20;;;13.52;;
30301;SDS011;17111;52.130;5.028;2023-09-18T02:29:16;16.67;;;12.57;;
30301;SDS011;17111;52.130;5.028;2023-09-18T02:31:43;17.75;;;13.10;;
30301;SDS011;17111;52.130;5.028;2023-09-18T02:34:10;18.35;;;13.30;;
30301;SDS011;17111;52.130;5.028;2023-09-18T02:36:36;16.98;;;12.70;;
30301;SDS011;17111;52.130;5.028;2023-09-18T02:39:03;18.15;;;12.98;;
30301;SDS011;17111;52.130;5.028;2023-09-18T02:41:30;18.00;;;13.48;;
30301;SDS011;17111;52.130;5.028;2023-09-18T02:43:56;16.33;;;12.30;;
30301;SDS011;17111;52.130;5.028;2023-09-18T02:46:23;16.08;;;11.93;;
30301;SDS011;17111;52.130;5.028;2023-09-18T02:48:50;18.13;;;12.55;;
30301;SDS011;17111;52.130;5.028;2023-09-18T02:51:17;16.77;;;12.38;;
30301;SDS011;17111;52.130;5.028;2023-09-18T02:53:43;18.10;;;12.45;;
30301;SDS011;17111;52.130;5.028;2023-09-18T02:56:10;16.40;;;11.63;;
30301;SDS011;17111;52.130;5.028;2023-09-18T02:58:37;16.42;;;12.40;;
30301;SDS011;17111;52.130;5.028;2023-09-18T03:01:03;16.65;;;11.88;;
30301;SDS011;17111;52.130;5.028;2023-09-18T03:03:33;15.13;;;11.38;;
30301;SDS011;17111;52.130;5.028;2023-09-18T03:06:00;15.75;;;11.40;;
30301;SDS011;17111;52.130;5.028;2023-09-18T03:08:28;16.92;;;12.40;;
30301;SDS011;17111;52.130;5.028;2023-09-18T03:10:55;15.52;;;11.63;;
30301;SDS011;17111;52.130;5.028;2023-09-18T03:13:22;14.88;;;11.63;;
30301;SDS011;17111;52.130;5.028;2023-09-18T03:15:49;17.75;;;12.18;;
30301;SDS011;17111;52.130;5.028;2023-09-18T03:18:15;15.85;;;12.13;;
30301;SDS011;17111;52.130;5.028;2023-09-18T03:20:42;14.52;;;11.32;;
30301;SDS011;17111;52.130;5.028;2023-09-18T03:23:09;16.30;;;11.15;;
30301;SDS011;17111;52.130;5.028;2023-09-18T03:25:36;15.77;;;11.45;;
30301;SDS011;17111;52.130;5.028;2023-09-18T03:28:16;15.77;;;11.73;;
30301;SDS011;17111;52.130;5.028;2023-09-18T03:30:43;14.50;;;11.15;;
30301;SDS011;17111;52.130;5.028;2023-09-18T03:33:09;14.68;;;11.13;;
30301;SDS011;17111;52.130;5.028;2023-09-18T03:35:49;14.75;;;10.68;;
30301;SDS011;17111;52.130;5.028;2023-09-18T03:38:17;15.10;;;11.25;;
30301;SDS011;17111;52.130;5.028;2023-09-18T03:40:44;14.15;;;11.10;;
30301;SDS011;17111;52.130;5.028;2023-09-18T03:43:10;15.40;;;11.10;;
30301;SDS011;17111;52.130;5.028;2023-09-18T03:45:39;15.93;;;11.52;;
30301;SDS011;17111;52.130;5.028;2023-09-18T03:48:09;13.50;;;10.43;;
30301;SDS011;17111;52.130;5.028;2023-09-18T03:50:37;14.65;;;10.27;;
30301;SDS011;17111;52.130;5.028;2023-09-18T03:53:05;14.65;;;10.77;;
30301;SDS011;17111;52.130;5.028;2023-09-18T03:55:32;14.43;;;10.23;;
30301;SDS011;17111;52.130;5.028;2023-09-18T03:57:59;13.70;;;9.65;;
30301;SDS011;17111;52.130;5.028;2023-09-18T04:00:26;13.30;;;10.27;;
30301;SDS011;17111;52.130;5.028;2023-09-18T04:02:53;14.00;;;9.90;;
30301;SDS011;17111;52.130;5.028;2023-09-18T04:05:20;11.95;;;9.30;;
30301;SDS011;17111;52.130;5.028;2023-09-18T04:07:47;13.68;;;10.05;;
30301;SDS011;17111;52.130;5.028;2023-09-18T04:10:14;12.63;;;9.55;;
30301;SDS011;17111;52.130;5.028;2023-09-18T04:12:50;12.95;;;9.70;;
30301;SDS011;17111;52.130;5.028;2023-09-18T04:15:17;12.50;;;8.82;;
30301;SDS011;17111;52.130;5.028;2023-09-18T04:17:45;16.60;;;9.32;;
30301;SDS011;17111;52.130;5.028;2023-09-18T04:20:12;12.70;;;8.02;;
30301;SDS011;17111;52.130;5.028;2023-09-18T04:22:42;12.27;;;8.15;;
30301;SDS011;17111;52.130;5.028;2023-09-18T04:25:11;11.23;;;8.05;;
30301;SDS011;17111;52.130;5.028;2023-09-18T04:27:38;10.98;;;8.18;;
30301;SDS011;17111;52.130;5.028;2023-09-18T04:30:05;12.63;;;8.50;;
30301;SDS011;17111;52.130;5.028;2023-09-18T04:32:36;10.45;;;7.90;;
30301;SDS011;17111;52.130;5.028;2023-09-18T04:35:04;9.52;;;7.55;;
30301;SDS011;17111;52.130;5.028;2023-09-18T04:37:33;11.48;;;8.00;;
30301;SDS011;17111;52.130;5.028;2023-09-18T04:40:04;10.25;;;7.75;;
30301;SDS011;17111;52.130;5.028;2023-09-18T04:42:38;11.13;;;8.02;;
30301;SDS011;17111;52.130;5.028;2023-09-18T04:45:06;10.73;;;7.57;;
30301;SDS011;17111;52.130;5.028;2023-09-18T04:47:33;10.50;;;7.60;;
30301;SDS011;17111;52.130;5.028;2023-09-18T04:50:00;11.82;;;7.63;;
30301;SDS011;17111;52.130;5.028;2023-09-18T04:52:26;12.40;;;8.18;;
30301;SDS011;17111;52.130;5.028;2023-09-18T04:54:54;10.30;;;7.45;;
30301;SDS011;17111;52.130;5.028;2023-09-18T04:57:20;10.57;;;7.78;;
30301;SDS011;17111;52.130;5.028;2023-09-18T04:59:48;11.00;;;7.82;;
30301;SDS011;17111;52.130;5.028;2023-09-18T05:02:35;11.23;;;8.07;;
30301;SDS011;17111;52.130;5.028;2023-09-18T05:05:02;11.63;;;7.13;;
30301;SDS011;17111;52.130;5.028;2023-09-18T05:07:30;11.50;;;7.90;;
30301;SDS011;17111;52.130;5.028;2023-09-18T05:09:57;9.18;;;7.13;;
30301;SDS011;17111;52.130;5.028;2023-09-18T05:12:24;10.55;;;7.70;;
30301;SDS011;17111;52.130;5.028;2023-09-18T05:14:51;8.93;;;7.13;;
30301;SDS011;17111;52.130;5.028;2023-09-18T05:17:18;9.18;;;7.18;;
30301;SDS011;17111;52.130;5.028;2023-09-18T05:19:44;9.52;;;6.80;;
30301;SDS011;17111;52.130;5.028;2023-09-18T05:22:11;9.02;;;6.95;;
30301;SDS011;17111;52.130;5.028;2023-09-18T05:24:38;9.77;;;6.97;;
30301;SDS011;17111;52.130;5.028;2023-09-18T05:27:05;9.57;;;7.05;;
30301;SDS011;17111;52.130;5.028;2023-09-18T05:29:33;10.25;;;6.97;;
30301;SDS011;17111;52.130;5.028;2023-09-18T05:32:04;8.95;;;6.72;;
30301;SDS011;17111;52.130;5.028;2023-09-18T05:34:30;10.70;;;7.25;;
30301;SDS011;17111;52.130;5.028;2023-09-18T05:36:58;9.98;;;7.15;;
30301;SDS011;17111;52.130;5.028;2023-09-18T05:39:25;10.55;;;7.47;;
30301;SDS011;17111;52.130;5.028;2023-09-18T05:41:51;8.65;;;6.70;;
30301;SDS011;17111;52.130;5.028;2023-09-18T05:44:18;9.05;;;6.75;;
30301;SDS011;17111;52.130;5.028;2023-09-18T05:46:45;9.50;;;6.35;;
30301;SDS011;17111;52.130;5.028;2023-09-18T05:49:11;8.88;;;6.78;;
30301;SDS011;17111;52.130;5.028;2023-09-18T05:51:38;10.15;;;7.03;;
30301;SDS011;17111;52.130;5.028;2023-09-18T05:54:05;8.77;;;6.60;;
30301;SDS011;17111;52.130;5.028;2023-09-18T05:56:33;9.05;;;6.60;;
30301;SDS011;17111;52.130;5.028;2023-09-18T05:59:00;8.93;;;7.00;;
30301;SDS011;17111;52.130;5.028;2023-09-18T06:01:26;11.07;;;6.85;;
30301;SDS011;17111;52.130;5.028;2023-09-18T06:03:54;10.63;;;6.45;;
30301;SDS011;17111;52.130;5.028;2023-09-18T06:06:21;9.07;;;6.38;;
30301;SDS011;17111;52.130;5.028;2023-09-18T06:08:47;9.68;;;6.85;;
30301;SDS011;17111;52.130;5.028;2023-09-18T06:11:14;10.77;;;7.20;;
30301;SDS011;17111;52.130;5.028;2023-09-18T06:13:41;10.23;;;6.20;;
30301;SDS011;17111;52.130;5.028;2023-09-18T06:16:07;10.30;;;6.45;;
30301;SDS011;17111;52.130;5.028;2023-09-18T06:18:34;8.20;;;6.10;;
30301;SDS011;17111;52.130;5.028;2023-09-18T06:21:04;9.43;;;6.55;;
30301;SDS011;17111;52.130;5.028;2023-09-18T06:23:31;9.25;;;6.85;;
30301;SDS011;17111;52.130;5.028;2023-09-18T06:25:58;8.25;;;6.05;;
30301;SDS011;17111;52.130;5.028;2023-09-18T06:28:25;10.40;;;6.05;;
30301;SDS011;17111;52.130;5.028;2023-09-18T06:30:52;7.95;;;5.95;;
30301;SDS011;17111;52.130;5.028;2023-09-18T06:33:20;10.25;;;6.28;;
30301;SDS011;17111;52.130;5.028;2023-09-18T06:35:47;8.15;;;6.30;;
30301;SDS011;17111;52.130;5.028;2023-09-18T06:38:15;6.85;;;5.38;;
30301;SDS011;17111;52.130;5.028;2023-09-18T06:40:41;8.05;;;5.63;;
30301;SDS011;17111;52.130;5.028;2023-09-18T06:43:08;8.48;;;6.07;;
30301;SDS011;17111;52.130;5.028;2023-09-18T06:45:35;7.50;;;5.55;;
30301;SDS011;17111;52.130;5.028;2023-09-18T06:48:04;7.55;;;5.72;;
30301;SDS011;17111;52.130;5.028;2023-09-18T06:50:31;8.32;;;5.82;;
30301;SDS011;17111;52.130;5.028;2023-09-18T06:52:58;7.50;;;5.70;;
30301;SDS011;17111;52.130;5.028;2023-09-18T06:55:24;8.15;;;6.07;;
30301;SDS011;17111;52.130;5.028;2023-09-18T06:57:51;7.13;;;5.18;;
30301;SDS011;17111;52.130;5.028;2023-09-18T07:00:18;8.90;;;5.60;;
30301;SDS011;17111;52.130;5.028;2023-09-18T07:02:47;7.05;;;5.07;;
30301;SDS011;17111;52.130;5.028;2023-09-18T07:05:16;7.50;;;5.10;;
30301;SDS011;17111;52.130;5.028;2023-09-18T07:07:43;7.32;;;5.47;;
30301;SDS011;17111;52.130;5.028;2023-09-18T07:10:10;6.93;;;5.30;;
30301;SDS011;17111;52.130;5.028;2023-09-18T07:12:36;6.45;;;4.88;;
30301;SDS011;17111;52.130;5.028;2023-09-18T07:15:03;5.93;;;4.70;;
30301;SDS011;17111;52.130;5.028;2023-09-18T07:17:32;8.10;;;4.97;;
30301;SDS011;17111;52.130;5.028;2023-09-18T07:19:59;7.43;;;5.60;;
30301;SDS011;17111;52.130;5.028;2023-09-18T07:22:26;8.15;;;5.50;;
30301;SDS011;17111;52.130;5.028;2023-09-18T07:24:56;5.90;;;4.43;;
30301;SDS011;17111;52.130;5.028;2023-09-18T07:27:22;6.97;;;4.57;;
30301;SDS011;17111;52.130;5.028;2023-09-18T07:29:49;5.55;;;4.47;;
30301;SDS011;17111;52.130;5.028;2023-09-18T07:32:16;6.63;;;4.75;;
30301;SDS011;17111;52.130;5.028;2023-09-18T07:35:02;7.10;;;4.60;;
30301;SDS011;17111;52.130;5.028;2023-09-18T07:37:31;6.45;;;4.35;;
30301;SDS011;17111;52.130;5.028;2023-09-18T07:39:58;7.20;;;4.20;;
30301;SDS011;17111;52.130;5.028;2023-09-18T07:42:25;7.25;;;4.10;;
30301;SDS011;17111;52.130;5.028;2023-09-18T07:44:52;5.10;;;4.15;;
30301;SDS011;17111;52.130;5.028;2023-09-18T07:47:22;5.75;;;4.30;;
30301;SDS011;17111;52.130;5.028;2023-09-18T07:49:48;5.13;;;3.70;;
30301;SDS011;17111;52.130;5.028;2023-09-18T07:52:16;7.05;;;3.58;;
30301;SDS011;17111;52.130;5.028;2023-09-18T07:54:43;6.88;;;4.20;;
30301;SDS011;17111;52.130;5.028;2023-09-18T07:57:10;5.63;;;4.20;;
30301;SDS011;17111;52.130;5.028;2023-09-18T07:59:37;5.82;;;3.88;;
30301;SDS011;17111;52.130;5.028;2023-09-18T08:02:05;5.07;;;4.03;;
30301;SDS011;17111;52.130;5.028;2023-09-18T08:04:32;6.88;;;4.70;;
30301;SDS011;17111;52.130;5.028;2023-09-18T08:06:59;6.70;;;3.90;;
30301;SDS011;17111;52.130;5.028;2023-09-18T08:09:26;4.38;;;3.65;;
30301;SDS011;17111;52.130;5.028;2023-09-18T08:11:56;5.85;;;3.90;;
30301;SDS011;17111;52.130;5.028;2023-09-18T08:14:22;5.68;;;3.70;;
30301;SDS011;17111;52.130;5.028;2023-09-18T08:16:55;5.82;;;4.18;;
30301;SDS011;17111;52.130;5.028;2023-09-18T08:19:23;6.00;;;4.18;;
30301;SDS011;17111;52.130;5.028;2023-09-18T08:21:53;7.22;;;3.30;;
30301;SDS011;17111;52.130;5.028;2023-09-18T08:24:20;5.20;;;3.38;;
30301;SDS011;17111;52.130;5.028;2023-09-18T08:26:47;4.50;;;3.50;;
30301;SDS011;17111;52.130;5.028;2023-09-18T08:29:14;4.35;;;3.65;;
30301;SDS011;17111;52.130;5.028;2023-09-18T08:31:42;4.63;;;2.83;;
30301;SDS011;17111;52.130;5.028;2023-09-18T08:34:08;5.72;;;3.33;;
30301;SDS011;17111;52.130;5.028;2023-09-18T08:36:35;5.88;;;3.08;;
30301;SDS011;17111;52.130;5.028;2023-09-18T08:39:02;4.65;;;3.20;;
30301;SDS011;17111;52.130;5.028;2023-09-18T08:41:32;5.97;;;3.50;;
30301;SDS011;17111;52.130;5.028;2023-09-18T08:44:02;5.28;;;2.80;;
30301;SDS011;17111;52.130;5.028;2023-09-18T08:46:30;5.15;;;3.15;;
30301;SDS011;17111;52.130;5.028;2023-09-18T08:48:59;5.85;;;3.17;;
30301;SDS011;17111;52.130;5.028;2023-09-18T08:51:27;6.32;;;3.47;;
30301;SDS011;17111;52.130;5.028;2023-09-18T08:53:54;5.05;;;2.95;;
30301;SDS011;17111;52.130;5.028;2023-09-18T08:56:22;7.43;;;3.08;;
30301;SDS011;17111;52.130;5.028;2023-09-18T08:58:49;3.45;;;2.75;;
30301;SDS011;17111;52.130;5.028;2023-09-18T09:01:17;3.78;;;2.72;;
30301;SDS011;17111;52.130;5.028;2023-09-18T09:03:44;5.75;;;2.60;;
30301;SDS011;17111;52.130;5.028;2023-09-18T09:06:13;4.35;;;2.65;;
30301;SDS011;17111;52.130;5.028;2023-09-18T09:08:40;6.18;;;2.65;;
30301;SDS011;17111;52.130;5.028;2023-09-18T09:11:07;4.82;;;2.70;;
30301;SDS011;17111;52.130;5.028;2023-09-18T09:13:33;3.45;;;2.78;;
30301;SDS011;17111;52.130;5.028;2023-09-18T09:16:12;4.85;;;2.90;;
30301;SDS011;17111;52.130;5.028;2023-09-18T09:18:49;6.75;;;2.55;;
30301;SDS011;17111;52.130;5.028;2023-09-18T09:21:18;5.00;;;2.45;;
30301;SDS011;17111;52.130;5.028;2023-09-18T09:23:48;3.58;;;2.17;;
30301;SDS011;17111;52.130;5.028;2023-09-18T09:26:22;3.38;;;2.22;;
30301;SDS011;17111;52.130;5.028;2023-09-18T09:28:50;4.07;;;2.58;;
30301;SDS011;17111;52.130;5.028;2023-09-18T09:33:55;3.85;;;2.10;;
30301;SDS011;17111;52.130;5.028;2023-09-18T09:36:23;3.38;;;2.17;;
30301;SDS011;17111;52.130;5.028;2023-09-18T09:38:56;3.20;;;2.00;;
30301;SDS011;17111;52.130;5.028;2023-09-18T09:41:26;4.93;;;2.45;;
30301;SDS011;17111;52.130;5.028;2023-09-18T09:43:57;3.15;;;2.05;;
30301;SDS011;17111;52.130;5.028;2023-09-18T09:46:24;2.85;;;2.30;;
30301;SDS011;17111;52.130;5.028;2023-09-18T09:49:12;3.92;;;2.17;;
30301;SDS011;17111;52.130;5.028;2023-09-18T09:51:38;3.97;;;1.95;;
30301;SDS011;17111;52.130;5.028;2023-09-18T09:54:08;4.03;;;2.17;;
30301;SDS011;17111;52.130;5.028;2023-09-18T09:56:41;5.20;;;1.90;;
30301;SDS011;17111;52.130;5.028;2023-09-18T09:59:10;3.35;;;2.15;;
30301;SDS011;17111;52.130;5.028;2023-09-18T10:01:38;2.80;;;1.88;;
30301;SDS011;17111;52.130;5.028;2023-09-18T10:04:16;2.65;;;1.88;;
30301;SDS011;17111;52.130;5.028;2023-09-18T10:06:44;3.50;;;2.00;;
30301;SDS011;17111;52.130;5.028;2023-09-18T10:09:17;3.45;;;1.95;;
30301;SDS011;17111;52.130;5.028;2023-09-18T10:11:45;2.97;;;2.03;;
30301;SDS011;17111;52.130;5.028;2023-09-18T10:14:20;2.88;;;1.80;;
30301;SDS011;17111;52.130;5.028;2023-09-18T10:16:53;4.03;;;1.92;;
30301;SDS011;17111;52.130;5.028;2023-09-18T10:19:34;2.70;;;1.73;;
30301;SDS011;17111;52.130;5.028;2023-09-18T10:24:49;2.40;;;2.00;;
30301;SDS011;17111;52.130;5.028;2023-09-18T10:27:20;4.13;;;1.92;;
30301;SDS011;17111;52.130;5.028;2023-09-18T10:29:50;3.67;;;2.00;;
30301;SDS011;17111;52.130;5.028;2023-09-18T10:32:18;5.07;;;2.28;;
30301;SDS011;17111;52.130;5.028;2023-09-18T10:34:47;3.75;;;1.77;;
30301;SDS011;17111;52.130;5.028;2023-09-18T10:37:14;3.92;;;1.80;;
30301;SDS011;17111;52.130;5.028;2023-09-18T10:39:41;3.55;;;1.80;;
30301;SDS011;17111;52.130;5.028;2023-09-18T10:42:11;2.53;;;1.85;;
30301;SDS011;17111;52.130;5.028;2023-09-18T10:44:40;5.47;;;2.08;;
30301;SDS011;17111;52.130;5.028;2023-09-18T10:47:08;3.28;;;1.70;;
30301;SDS011;17111;52.130;5.028;2023-09-18T10:49:36;3.38;;;1.80;;
30301;SDS011;17111;52.130;5.028;2023-09-18T10:52:03;2.67;;;1.40;;
30301;SDS011;17111;52.130;5.028;2023-09-18T10:54:30;3.58;;;2.20;;
30301;SDS011;17111;52.130;5.028;2023-09-18T10:56:58;2.75;;;1.73;;
30301;SDS011;17111;52.130;5.028;2023-09-18T10:59:25;3.63;;;1.55;;
30301;SDS011;17111;52.130;5.028;2023-09-18T11:01:54;6.05;;;1.65;;
30301;SDS011;17111;52.130;5.028;2023-09-18T11:04:20;3.20;;;1.90;;
30301;SDS011;17111;52.130;5.028;2023-09-18T11:09:28;2.17;;;1.48;;
30301;SDS011;17111;52.130;5.028;2023-09-18T11:17:28;2.53;;;1.48;;
30301;SDS011;17111;52.130;5.028;2023-09-18T11:20:06;3.38;;;1.60;;
30301;SDS011;17111;52.130;5.028;2023-09-18T11:22:36;2.70;;;1.75;;
30301;SDS011;17111;52.130;5.028;2023-09-18T11:27:57;3.50;;;1.60;;
30301;SDS011;17111;52.130;5.028;2023-09-18T11:30:23;3.70;;;1.70;;
30301;SDS011;17111;52.130;5.028;2023-09-18T11:32:51;3.13;;;2.00;;
30301;SDS011;17111;52.130;5.028;2023-09-18T11:35:18;9.32;;;1.60;;
30301;SDS011;17111;52.130;5.028;2023-09-18T11:37:45;2.92;;;1.50;;
30301;SDS011;17111;52.130;5.028;2023-09-18T11:40:32;2.05;;;1.50;;
30301;SDS011;17111;52.130;5.028;2023-09-18T11:45:53;2.33;;;1.60;;
30301;SDS011;17111;52.130;5.028;2023-09-18T11:48:22;4.88;;;1.65;;
30301;SDS011;17111;52.130;5.028;2023-09-18T11:50:52;3.65;;;1.60;;
30301;SDS011;17111;52.130;5.028;2023-09-18T11:53:20;3.08;;;1.63;;
30301;SDS011;17111;52.130;5.028;2023-09-18T11:55:47;2.30;;;1.58;;
30301;SDS011;17111;52.130;5.028;2023-09-18T11:58:14;5.80;;;2.10;;
30301;SDS011;17111;52.130;5.028;2023-09-18T12:00:41;1.60;;;1.50;;
30301;SDS011;17111;52.130;5.028;2023-09-18T12:03:14;4.33;;;1.53;;
30301;SDS011;17111;52.130;5.028;2023-09-18T12:05:52;3.13;;;1.38;;
30301;SDS011;17111;52.130;5.028;2023-09-18T12:08:21;3.33;;;1.48;;
30301;SDS011;17111;52.130;5.028;2023-09-18T12:10:49;2.83;;;1.77;;
30301;SDS011;17111;52.130;5.028;2023-09-18T12:13:17;2.45;;;1.42;;
30301;SDS011;17111;52.130;5.028;2023-09-18T12:15:44;6.75;;;1.63;;
30301;SDS011;17111;52.130;5.028;2023-09-18T12:18:13;3.05;;;1.63;;
30301;SDS011;17111;52.130;5.028;2023-09-18T12:20:44;5.30;;;1.83;;
30301;SDS011;17111;52.130;5.028;2023-09-18T12:23:12;3.35;;;1.58;;
30301;SDS011;17111;52.130;5.028;2023-09-18T12:25:39;2.28;;;1.25;;
30301;SDS011;17111;52.130;5.028;2023-09-18T12:28:07;1.92;;;1.50;;
30301;SDS011;17111;52.130;5.028;2023-09-18T12:30:34;2.67;;;1.65;;
30301;SDS011;17111;52.130;5.028;2023-09-18T12:33:01;2.85;;;1.50;;
30301;SDS011;17111;52.130;5.028;2023-09-18T12:35:28;3.55;;;1.63;;
30301;SDS011;17111;52.130;5.028;2023-09-18T12:37:57;2.30;;;1.23;;
30301;SDS011;17111;52.130;5.028;2023-09-18T12:40:28;4.28;;;1.67;;
30301;SDS011;17111;52.130;5.028;2023-09-18T12:42:59;2.58;;;1.65;;
30301;SDS011;17111;52.130;5.028;2023-09-18T12:45:26;5.43;;;1.73;;
30301;SDS011;17111;52.130;5.028;2023-09-18T12:47:54;4.78;;;1.80;;
30301;SDS011;17111;52.130;5.028;2023-09-18T12:50:22;2.13;;;1.50;;
30301;SDS011;17111;52.130;5.028;2023-09-18T12:52:50;4.07;;;1.90;;
30301;SDS011;17111;52.130;5.028;2023-09-18T12:55:25;3.40;;;1.63;;
30301;SDS011;17111;52.130;5.028;2023-09-18T12:57:53;2.47;;;1.38;;
30301;SDS011;17111;52.130;5.028;2023-09-18T13:00:21;3.20;;;1.63;;
30301;SDS011;17111;52.130;5.028;2023-09-18T13:02:53;2.20;;;1.50;;
30301;SDS011;17111;52.130;5.028;2023-09-18T13:05:23;4.38;;;1.63;;
30301;SDS011;17111;52.130;5.028;2023-09-18T13:07:53;2.38;;;1.20;;
30301;SDS011;17111;52.130;5.028;2023-09-18T13:10:21;3.95;;;1.30;;
30301;SDS011;17111;52.130;5.028;2023-09-18T13:12:52;2.88;;;1.58;;
30301;SDS011;17111;52.130;5.028;2023-09-18T13:17:54;2.47;;;1.60;;
30301;SDS011;17111;52.130;5.028;2023-09-18T13:20:22;4.70;;;1.60;;
30301;SDS011;17111;52.130;5.028;2023-09-18T13:22:54;2.75;;;1.73;;
30301;SDS011;17111;52.130;5.028;2023-09-18T13:25:23;3.40;;;1.75;;
30301;SDS011;17111;52.130;5.028;2023-09-18T13:27:52;2.40;;;1.40;;
30301;SDS011;17111;52.130;5.028;2023-09-18T13:30:20;3.17;;;1.58;;
30301;SDS011;17111;52.130;5.028;2023-09-18T13:32:48;2.85;;;1.70;;
30301;SDS011;17111;52.130;5.028;2023-09-18T13:35:16;3.83;;;1.70;;
30301;SDS011;17111;52.130;5.028;2023-09-18T13:37:45;2.35;;;1.77;;
30301;SDS011;17111;52.130;5.028;2023-09-18T13:40:12;2.28;;;1.65;;
30301;SDS011;17111;52.130;5.028;2023-09-18T13:42:39;2.95;;;1.55;;
30301;SDS011;17111;52.130;5.028;2023-09-18T13:45:06;2.63;;;1.70;;
30301;SDS011;17111;52.130;5.028;2023-09-18T13:47:33;2.15;;;1.60;;
30301;SDS011;17111;52.130;5.028;2023-09-18T13:50:01;2.80;;;1.65;;
30301;SDS011;17111;52.130;5.028;2023-09-18T13:52:31;3.03;;;1.85;;
30301;SDS011;17111;52.130;5.028;2023-09-18T13:55:01;2.63;;;1.70;;
30301;SDS011;17111;52.130;5.028;2023-09-18T13:57:32;3.35;;;1.45;;
30301;SDS011;17111;52.130;5.028;2023-09-18T13:59:59;4.35;;;2.10;;
30301;SDS011;17111;52.130;5.028;2023-09-18T14:02:27;5.63;;;1.60;;
30301;SDS011;17111;52.130;5.028;2023-09-18T14:04:54;3.47;;;1.52;;
30301;SDS011;17111;52.130;5.028;2023-09-18T14:07:21;4.97;;;2.05;;
30301;SDS011;17111;52.130;5.028;2023-09-18T14:09:48;3.35;;;1.70;;
30301;SDS011;17111;52.130;5.028;2023-09-18T14:12:16;2.60;;;1.75;;
30301;SDS011;17111;52.130;5.028;2023-09-18T14:14:42;2.60;;;1.90;;
30301;SDS011;17111;52.130;5.028;2023-09-18T14:17:10;2.28;;;1.70;;
30301;SDS011;17111;52.130;5.028;2023-09-18T14:19:37;2.60;;;1.65;;
30301;SDS011;17111;52.130;5.028;2023-09-18T14:22:07;3.10;;;1.90;;
30301;SDS011;17111;52.130;5.028;2023-09-18T14:24:34;2.75;;;1.90;;
30301;SDS011;17111;52.130;5.028;2023-09-18T14:27:01;3.65;;;1.63;;
30301;SDS011;17111;52.130;5.028;2023-09-18T14:29:29;2.47;;;1.60;;
30301;SDS011;17111;52.130;5.028;2023-09-18T14:31:56;7.05;;;2.20;;
30301;SDS011;17111;52.130;5.028;2023-09-18T14:34:23;4.53;;;2.35;;
30301;SDS011;17111;52.130;5.028;2023-09-18T14:36:50;4.25;;;2.03;;
30301;SDS011;17111;52.130;5.028;2023-09-18T14:39:17;6.25;;;2.28;;
30301;SDS011;17111;52.130;5.028;2023-09-18T14:41:43;4.60;;;2.33;;
30301;SDS011;17111;52.130;5.028;2023-09-18T14:44:10;3.20;;;1.70;;
30301;SDS011;17111;52.130;5.028;2023-09-18T14:46:37;3.50;;;2.13;;
30301;SDS011;17111;52.130;5.028;2023-09-18T14:49:05;4.13;;;2.20;;
30301;SDS011;17111;52.130;5.028;2023-09-18T14:51:36;3.70;;;2.47;;
30301;SDS011;17111;52.130;5.028;2023-09-18T14:54:02;5.35;;;2.38;;
30301;SDS011;17111;52.130;5.028;2023-09-18T14:56:31;4.72;;;2.38;;
30301;SDS011;17111;52.130;5.028;2023-09-18T14:58:57;7.45;;;2.55;;
30301;SDS011;17111;52.130;5.028;2023-09-18T15:01:24;8.05;;;2.40;;
30301;SDS011;17111;52.130;5.028;2023-09-18T15:03:51;3.15;;;1.98;;
30301;SDS011;17111;52.130;5.028;2023-09-18T15:06:18;4.95;;;1.63;;
30301;SDS011;17111;52.130;5.028;2023-09-18T15:08:45;4.05;;;1.90;;
30301;SDS011;17111;52.130;5.028;2023-09-18T15:11:11;3.30;;;1.60;;